createdAt,value
2018-12-06T00:01:30.551Z,49.70
2018-12-06T00:03:57.468Z,49.40
2018-12-06T00:06:24.420Z,49.40
2018-12-06T00:08:51.364Z,49.30
2018-12-06T00:11:18.280Z,49.30
2018-12-06T00:13:45.257Z,49.40
2018-12-06T00:16:12.168Z,49.40
2018-12-06T00:18:39.100Z,49.40
2018-12-06T00:21:06.092Z,49.40
2018-12-06T00:23:33.036Z,49.30
2018-12-06T00:25:59.997Z,49.30
2018-12-06T00:28:26.904Z,49.30
2018-12-06T00:30:53.885Z,49.80
2018-12-06T00:33:20.829Z,49.30
2018-12-06T00:35:47.867Z,49.30
2018-12-06T00:38:14.793Z,49.30
2018-12-06T00:40:41.705Z,49.30
2018-12-06T00:43:08.708Z,49.30
2018-12-06T00:45:35.652Z,49.40
2018-12-06T00:48:02.597Z,49.40
2018-12-06T00:50:29.507Z,49.30
2018-12-06T00:52:56.437Z,49.30
2018-12-06T00:55:23.440Z,49.30
2018-12-06T00:57:50.380Z,49.30
2018-12-06T01:00:17.323Z,49.30
2018-12-06T01:02:44.273Z,49.30
2018-12-06T01:05:11.197Z,49.30
2018-12-06T01:07:38.133Z,49.30
2018-12-06T01:10:05.053Z,49.30
2018-12-06T01:12:32.062Z,49.30
2018-12-06T01:14:59.150Z,49.30
2018-12-06T01:17:26.156Z,49.30
2018-12-06T01:19:53.200Z,49.40
2018-12-06T01:22:20.116Z,49.30
2018-12-06T01:24:47.106Z,49.30
2018-12-06T01:27:14.040Z,49.30
2018-12-06T01:29:40.960Z,49.30
2018-12-06T01:32:07.869Z,49.30
2018-12-06T01:34:34.796Z,49.20
2018-12-06T01:37:01.725Z,49.30
2018-12-06T01:39:28.645Z,49.20
2018-12-06T01:41:55.608Z,49.20
2018-12-06T01:44:22.538Z,49.20
2018-12-06T01:46:49.449Z,49.20
2018-12-06T01:49:16.455Z,49.20
2018-12-06T01:51:43.516Z,49.30
2018-12-06T01:54:10.445Z,49.20
2018-12-06T01:56:37.404Z,49.20
2018-12-06T01:59:04.446Z,49.20
2018-12-06T02:01:31.381Z,49.30
2018-12-06T02:03:58.348Z,49.30
2018-12-06T02:06:25.262Z,49.30
2018-12-06T02:08:52.261Z,49.30
2018-12-06T02:11:19.266Z,49.30
2018-12-06T02:13:46.216Z,49.30
2018-12-06T02:16:13.134Z,49.30
2018-12-06T02:18:40.100Z,49.30
2018-12-06T02:21:07.051Z,49.30
2018-12-06T02:23:33.998Z,49.30
2018-12-06T02:26:00.946Z,49.30
2018-12-06T02:28:28.809Z,49.30
2018-12-06T02:30:55.757Z,49.30
2018-12-06T02:33:22.708Z,49.30
2018-12-06T02:35:49.715Z,49.30
2018-12-06T02:38:16.693Z,49.30
2018-12-06T02:40:43.609Z,49.30
2018-12-06T02:43:10.580Z,49.20
2018-12-06T02:45:37.537Z,49.30
2018-12-06T02:48:04.464Z,49.20
2018-12-06T02:50:31.424Z,49.20
2018-12-06T02:52:58.346Z,49.10
2018-12-06T02:55:25.434Z,49.10
2018-12-06T02:57:52.366Z,49.10
2018-12-06T03:00:19.277Z,49.10
2018-12-06T03:02:46.190Z,49.10
2018-12-06T03:05:13.139Z,49.10
2018-12-06T03:07:40.148Z,49.20
2018-12-06T03:10:07.094Z,49.10
2018-12-06T03:12:34.036Z,49.10
2018-12-06T03:15:00.962Z,49.10
2018-12-06T03:17:27.879Z,49.10
2018-12-06T03:19:54.801Z,49.10
2018-12-06T03:22:21.805Z,49.10
2018-12-06T03:24:48.724Z,49.20
2018-12-06T03:27:15.875Z,49.20
2018-12-06T03:29:42.873Z,49.20
2018-12-06T03:32:09.798Z,49.20
2018-12-06T03:34:50.576Z,49.20
2018-12-06T03:37:17.488Z,49.10
2018-12-06T03:39:44.436Z,49.20
2018-12-06T03:42:11.353Z,49.20
2018-12-06T03:44:38.312Z,49.30
2018-12-06T03:47:05.270Z,49.20
2018-12-06T03:49:32.189Z,49.30
2018-12-06T03:51:59.166Z,49.30
2018-12-06T03:54:26.086Z,49.40
2018-12-06T03:56:52.999Z,49.40
2018-12-06T03:59:20.005Z,49.40
2018-12-06T04:01:46.932Z,49.40
2018-12-06T04:04:13.889Z,49.40
2018-12-06T04:06:40.842Z,49.30
2018-12-06T04:09:07.777Z,49.30
2018-12-06T04:11:34.722Z,49.30
2018-12-06T04:14:01.633Z,49.30
2018-12-06T04:16:28.618Z,49.30
2018-12-06T04:18:55.549Z,49.30
2018-12-06T04:21:22.472Z,49.30
2018-12-06T04:23:49.379Z,49.30
2018-12-06T04:26:16.392Z,49.30
2018-12-06T04:28:43.317Z,49.40
2018-12-06T04:31:10.237Z,49.40
2018-12-06T04:33:37.160Z,49.40
2018-12-06T04:36:04.077Z,49.40
2018-12-06T04:38:31.030Z,49.50
2018-12-06T04:40:57.974Z,49.50
2018-12-06T04:43:25.026Z,49.50
2018-12-06T04:45:51.948Z,49.50
2018-12-06T04:48:22.185Z,49.60
2018-12-06T04:50:48.725Z,49.60
2018-12-06T04:53:15.726Z,49.60
2018-12-06T04:55:42.790Z,49.60
2018-12-06T04:58:09.788Z,49.40
2018-12-06T05:00:36.816Z,49.40
2018-12-06T05:03:03.762Z,49.40
2018-12-06T05:05:30.709Z,49.40
2018-12-06T05:07:57.752Z,49.50
2018-12-06T05:10:24.701Z,49.60
2018-12-06T05:12:51.625Z,49.70
2018-12-06T05:15:18.550Z,49.70
2018-12-06T05:17:45.467Z,49.70
2018-12-06T05:20:12.484Z,49.70
2018-12-06T05:22:39.424Z,49.90
2018-12-06T05:25:06.348Z,49.90
2018-12-06T05:27:33.416Z,50.00
2018-12-06T05:30:00.336Z,50.20
2018-12-06T05:32:27.257Z,50.10
2018-12-06T05:34:54.271Z,50.00
2018-12-06T05:37:21.182Z,50.00
2018-12-06T05:39:48.099Z,50.10
2018-12-06T05:42:15.025Z,50.10
2018-12-06T05:44:42.046Z,50.30
2018-12-06T05:47:08.994Z,50.50
2018-12-06T05:49:35.929Z,50.40
2018-12-06T05:52:02.847Z,50.50
2018-12-06T05:54:29.824Z,50.60
2018-12-06T05:56:56.749Z,50.30
2018-12-06T05:59:23.681Z,50.30
2018-12-06T06:01:50.596Z,50.10
2018-12-06T06:05:57.901Z,50.00
2018-12-06T06:08:24.908Z,50.20
2018-12-06T06:10:51.835Z,50.20
2018-12-06T06:13:18.762Z,50.10
2018-12-06T06:15:45.745Z,49.90
2018-12-06T06:18:12.661Z,50.30
2018-12-06T06:20:39.644Z,50.20
2018-12-06T06:23:06.581Z,50.30
2018-12-06T06:25:33.497Z,50.30
2018-12-06T06:28:00.425Z,50.50
2018-12-06T06:30:27.354Z,50.60
2018-12-06T06:32:54.274Z,50.80
2018-12-06T06:35:21.192Z,50.90
2018-12-06T06:37:48.149Z,51.00
2018-12-06T06:40:15.169Z,51.10
2018-12-06T06:42:42.152Z,51.10
2018-12-06T06:45:09.078Z,50.60
2018-12-06T06:47:36.042Z,49.80
2018-12-06T06:50:03.211Z,50.40
2018-12-06T06:52:30.233Z,50.30
2018-12-06T06:54:57.161Z,50.70
2018-12-06T06:57:24.119Z,50.20
2018-12-06T06:59:51.044Z,50.30
2018-12-06T07:02:18.020Z,50.30
2018-12-06T07:04:44.945Z,50.40
2018-12-06T07:07:11.921Z,50.30
2018-12-06T07:09:38.861Z,50.40
2018-12-06T07:12:05.772Z,50.60
2018-12-06T07:14:32.688Z,50.80
2018-12-06T07:16:59.702Z,51.30
2018-12-06T07:19:26.621Z,51.60
2018-12-06T07:21:53.589Z,51.40
2018-12-06T07:24:20.565Z,51.30
2018-12-06T07:26:47.714Z,51.20
2018-12-06T07:29:14.838Z,51.30
2018-12-06T07:31:41.876Z,51.60
2018-12-06T07:34:08.820Z,51.60
2018-12-06T07:36:35.742Z,51.80
2018-12-06T07:39:03.823Z,52.10
2018-12-06T07:41:30.792Z,52.80
2018-12-06T07:43:57.742Z,52.30
2018-12-06T07:46:24.693Z,52.40
2018-12-06T07:48:51.732Z,52.50
2018-12-06T07:51:18.657Z,52.60
2018-12-06T07:53:45.589Z,52.70
2018-12-06T07:56:12.504Z,52.80
2018-12-06T07:58:39.454Z,53.50
2018-12-06T08:01:06.362Z,53.40
2018-12-06T08:03:33.286Z,53.80
2018-12-06T08:06:00.214Z,54.00
2018-12-06T08:08:27.133Z,53.70
2018-12-06T08:10:54.140Z,53.70
2018-12-06T08:13:21.060Z,53.70
2018-12-06T08:15:48.056Z,53.70
2018-12-06T08:18:15.044Z,53.70
2018-12-06T08:20:41.969Z,53.60
2018-12-06T08:23:08.896Z,53.60
2018-12-06T08:25:35.819Z,53.70
2018-12-06T08:28:02.766Z,54.60
2018-12-06T08:30:29.685Z,54.00
2018-12-06T08:32:56.654Z,53.90
2018-12-06T08:35:23.703Z,53.70
2018-12-06T08:37:50.612Z,53.70
2018-12-06T08:40:17.526Z,53.80
2018-12-06T08:43:14.954Z,54.00
2018-12-06T08:45:41.900Z,54.20
2018-12-06T08:48:08.849Z,54.20
2018-12-06T08:50:35.788Z,54.30
2018-12-06T08:53:02.712Z,55.10
2018-12-06T08:55:29.634Z,54.50
2018-12-06T08:57:56.554Z,54.50
2018-12-06T09:00:24.195Z,54.40
2018-12-06T09:02:51.207Z,54.60
2018-12-06T09:05:18.168Z,54.60
2018-12-06T09:07:45.122Z,55.30
2018-12-06T09:10:12.068Z,54.80
2018-12-06T09:12:38.993Z,54.90
2018-12-06T09:15:05.965Z,54.90
2018-12-06T09:17:32.880Z,55.00
2018-12-06T09:19:59.857Z,55.10
2018-12-06T09:22:26.771Z,55.20
2018-12-06T09:24:53.749Z,55.30
2018-12-06T09:27:20.693Z,55.30
2018-12-06T09:29:47.649Z,55.50
2018-12-06T09:32:14.596Z,55.60
2018-12-06T09:34:41.641Z,55.60
2018-12-06T09:37:11.481Z,55.20
2018-12-06T09:39:38.419Z,54.90
2018-12-06T09:42:05.328Z,55.20
2018-12-06T09:44:32.376Z,55.40
2018-12-06T09:46:59.305Z,55.30
2018-12-06T09:49:26.255Z,55.40
2018-12-06T09:51:53.168Z,55.30
2018-12-06T09:54:20.125Z,55.10
2018-12-06T09:56:47.044Z,55.00
2018-12-06T09:59:14.056Z,55.10
2018-12-06T10:01:40.984Z,55.10
2018-12-06T10:04:07.955Z,55.10
2018-12-06T10:06:34.885Z,55.20
2018-12-06T10:09:01.822Z,55.20
2018-12-06T10:11:28.772Z,55.10
2018-12-06T10:13:55.759Z,55.20
2018-12-06T10:16:22.775Z,55.20
2018-12-06T10:18:49.692Z,55.30
2018-12-06T10:21:16.624Z,55.10
2018-12-06T10:23:43.553Z,55.10
2018-12-06T10:26:10.545Z,55.20
2018-12-06T10:28:37.500Z,55.20
2018-12-06T10:31:04.426Z,55.30
2018-12-06T10:33:31.389Z,55.30
2018-12-06T10:35:58.328Z,55.50
2018-12-06T10:38:25.269Z,55.50
2018-12-06T10:40:52.238Z,55.40
2018-12-06T10:43:19.173Z,55.40
2018-12-06T10:45:46.156Z,55.70
2018-12-06T10:48:13.078Z,56.00
2018-12-06T10:50:40.009Z,56.10
2018-12-06T10:53:06.931Z,56.00
2018-12-06T10:55:33.901Z,56.10
2018-12-06T10:58:00.841Z,56.00
2018-12-06T11:00:33.623Z,56.10
2018-12-06T11:03:06.326Z,56.20
2018-12-06T11:05:33.248Z,56.20
2018-12-06T11:08:00.184Z,56.50
2018-12-06T11:10:27.252Z,56.70
2018-12-06T11:12:54.182Z,56.70
2018-12-06T11:15:21.105Z,56.80
2018-12-06T11:17:48.097Z,56.90
2018-12-06T11:20:15.034Z,57.00
2018-12-06T11:22:41.976Z,57.10
2018-12-06T11:25:08.928Z,57.10
2018-12-06T11:27:35.873Z,57.30
2018-12-06T11:30:03.132Z,57.40
2018-12-06T11:32:30.069Z,57.50
2018-12-06T11:34:57.017Z,57.60
2018-12-06T11:37:23.965Z,57.70
2018-12-06T11:39:50.912Z,57.60
2018-12-06T11:42:19.007Z,57.60
2018-12-06T11:44:46.166Z,57.40
2018-12-06T11:47:13.176Z,57.60
2018-12-06T11:49:40.130Z,57.80
2018-12-06T11:52:07.085Z,57.90
2018-12-06T11:54:34.042Z,58.00
2018-12-06T11:57:01.064Z,58.00
2018-12-06T11:59:27.990Z,58.00
2018-12-06T12:01:54.959Z,58.20
2018-12-06T12:04:21.901Z,58.30
2018-12-06T12:06:48.850Z,58.20
2018-12-06T12:09:16.228Z,58.10
2018-12-06T12:11:43.393Z,58.30
2018-12-06T12:14:10.416Z,58.30
2018-12-06T12:16:37.451Z,58.40
2018-12-06T12:19:04.392Z,58.40
2018-12-06T12:21:31.355Z,58.40
2018-12-06T12:23:58.288Z,58.40
2018-12-06T12:26:25.208Z,58.40
2018-12-06T12:28:52.185Z,58.50
2018-12-06T12:31:19.105Z,58.40
2018-12-06T12:33:46.032Z,58.50
2018-12-06T12:36:13.043Z,58.50
2018-12-06T12:38:40.061Z,58.50
2018-12-06T12:41:07.001Z,58.50
2018-12-06T12:43:33.943Z,58.50
2018-12-06T12:46:00.894Z,58.50
2018-12-06T12:48:27.861Z,58.60
2018-12-06T12:50:54.887Z,58.60
2018-12-06T12:53:22.995Z,58.90
2018-12-06T12:55:50.222Z,58.50
2018-12-06T12:58:17.164Z,58.80
2018-12-06T13:00:44.087Z,59.10
2018-12-06T13:03:11.009Z,59.20
2018-12-06T13:05:37.941Z,59.20
2018-12-06T13:08:05.142Z,58.80
2018-12-06T13:10:32.099Z,59.00
2018-12-06T13:12:59.047Z,59.10
2018-12-06T13:15:25.960Z,59.20
2018-12-06T13:17:52.891Z,59.40
2018-12-06T13:20:19.886Z,59.60
2018-12-06T13:22:46.816Z,59.70
2018-12-06T13:25:13.744Z,59.50
2018-12-06T13:27:40.727Z,59.50
2018-12-06T13:30:07.685Z,59.30
2018-12-06T13:32:34.715Z,59.40
2018-12-06T13:35:01.661Z,59.40
2018-12-06T13:37:28.599Z,59.50
2018-12-06T13:39:55.552Z,59.40
2018-12-06T13:42:23.729Z,59.40
2018-12-06T13:44:50.999Z,59.50
2018-12-06T13:47:17.914Z,59.50
2018-12-06T13:49:44.844Z,59.00
2018-12-06T13:52:11.772Z,59.50
2018-12-06T13:54:38.765Z,59.50
2018-12-06T13:57:05.685Z,59.50
2018-12-06T13:59:32.657Z,59.70
2018-12-06T14:01:59.581Z,59.90
2018-12-06T14:04:26.547Z,60.10
2018-12-06T14:06:53.484Z,60.60
2018-12-06T14:09:20.437Z,61.00
2018-12-06T14:11:47.380Z,61.50
2018-12-06T14:14:14.332Z,61.90
2018-12-06T14:16:41.246Z,62.30
2018-12-06T14:19:08.164Z,62.90
2018-12-06T14:21:35.126Z,63.10
2018-12-06T14:24:02.214Z,63.70
2018-12-06T14:26:29.133Z,64.30
2018-12-06T14:28:56.104Z,64.70
2018-12-06T14:31:23.029Z,65.20
2018-12-06T14:33:49.998Z,65.70
2018-12-06T14:36:16.926Z,65.90
2018-12-06T14:38:43.852Z,66.00
2018-12-06T14:41:10.778Z,66.40
2018-12-06T14:43:37.702Z,67.00
2018-12-06T14:46:04.653Z,67.30
2018-12-06T14:48:31.601Z,67.70
2018-12-06T14:50:58.621Z,67.50
2018-12-06T14:53:25.583Z,67.70
2018-12-06T14:55:52.606Z,68.10
2018-12-06T14:58:19.534Z,68.10
2018-12-06T15:00:46.449Z,68.30
2018-12-06T15:03:13.453Z,68.50
2018-12-06T15:05:40.373Z,68.60
2018-12-06T15:08:07.292Z,68.50
2018-12-06T15:10:34.289Z,68.40
2018-12-06T15:13:01.217Z,68.40
2018-12-06T15:15:28.172Z,68.60
2018-12-06T15:17:55.096Z,68.70
2018-12-06T15:20:22.069Z,68.00
2018-12-06T15:22:48.993Z,67.60
2018-12-06T15:25:16.045Z,68.10
2018-12-06T15:27:43.100Z,66.80
2018-12-06T15:30:10.017Z,66.40
2018-12-06T15:32:37.021Z,66.20
2018-12-06T15:35:04.718Z,66.00
2018-12-06T15:37:31.717Z,65.70
2018-12-06T15:39:58.657Z,65.60
2018-12-06T15:42:25.706Z,65.60
2018-12-06T15:44:52.660Z,65.50
2018-12-06T15:47:19.586Z,65.40
2018-12-06T15:49:46.544Z,65.40
2018-12-06T15:52:13.497Z,65.40
2018-12-06T15:54:40.432Z,65.30
2018-12-06T15:57:07.373Z,65.40
2018-12-06T15:59:34.320Z,65.30
2018-12-06T16:02:01.273Z,65.20
2018-12-06T16:04:28.216Z,65.30
2018-12-06T16:06:55.175Z,65.20
2018-12-06T16:09:22.110Z,64.50
2018-12-06T16:11:49.058Z,64.90
2018-12-06T16:15:40.733Z,65.00
2018-12-06T16:18:07.657Z,64.60
2018-12-06T16:20:34.580Z,64.70
2018-12-06T16:23:01.531Z,65.00
2018-12-06T16:25:28.480Z,64.30
2018-12-06T16:27:55.421Z,64.30
2018-12-06T16:30:22.343Z,64.40
2018-12-06T16:32:49.303Z,64.30
2018-12-06T16:35:16.253Z,64.20
2018-12-06T16:37:43.173Z,64.00
2018-12-06T16:40:10.097Z,64.00
2018-12-06T16:42:37.020Z,64.00
2018-12-06T16:45:04.278Z,63.90
2018-12-06T16:47:31.200Z,63.80
2018-12-06T16:49:58.125Z,63.70
2018-12-06T16:52:25.078Z,63.60
2018-12-06T16:54:52.016Z,63.50
2018-12-06T16:57:19.914Z,63.30
2018-12-06T16:59:46.887Z,63.30
2018-12-06T17:02:13.821Z,64.10
2018-12-06T17:04:40.844Z,63.30
2018-12-06T17:07:07.763Z,63.40
2018-12-06T17:09:34.724Z,63.30
2018-12-06T17:12:01.653Z,63.30
2018-12-06T17:14:28.663Z,63.30
2018-12-06T17:16:55.560Z,64.00
2018-12-06T17:19:22.626Z,63.40
2018-12-06T17:21:50.615Z,63.20
2018-12-06T17:24:17.547Z,62.90
2018-12-06T17:26:44.768Z,63.20
2018-12-06T17:29:11.722Z,63.20
2018-12-06T17:31:38.654Z,63.20
2018-12-06T17:34:05.608Z,63.20
2018-12-06T17:36:32.557Z,63.10
2018-12-06T17:38:59.505Z,63.10
2018-12-06T17:41:26.441Z,63.00
2018-12-06T17:43:53.352Z,62.90
2018-12-06T17:46:20.285Z,62.90
2018-12-06T17:48:47.222Z,62.90
2018-12-06T17:51:14.242Z,62.90
2018-12-06T17:53:41.161Z,62.90
2018-12-06T17:56:08.099Z,62.80
2018-12-06T17:58:35.073Z,62.80
2018-12-06T18:01:02.026Z,62.80
2018-12-06T18:03:29.038Z,62.80
2018-12-06T18:05:56.013Z,62.80
2018-12-06T18:08:22.949Z,62.80
2018-12-06T18:10:50.131Z,62.80
2018-12-06T18:13:17.060Z,62.80
2018-12-06T18:15:44.012Z,62.90
2018-12-06T18:18:10.942Z,62.80
2018-12-06T18:20:37.950Z,62.80
2018-12-06T18:23:04.902Z,62.80
2018-12-06T18:25:31.846Z,62.80
2018-12-06T18:27:58.943Z,62.90
2018-12-06T18:30:25.961Z,63.10
2018-12-06T18:32:52.893Z,62.90
2018-12-06T18:35:19.934Z,63.10
2018-12-06T18:37:46.911Z,63.30
2018-12-06T18:40:13.821Z,63.00
2018-12-06T18:42:40.848Z,63.00
2018-12-06T18:45:07.767Z,63.30
2018-12-06T18:47:34.820Z,63.10
2018-12-06T18:50:01.803Z,63.30
2018-12-06T18:52:28.728Z,63.30
2018-12-06T18:54:55.687Z,63.30
2018-12-06T18:57:22.638Z,63.20
2018-12-06T18:59:49.788Z,63.30
2018-12-06T19:02:16.703Z,63.30
2018-12-06T19:04:43.615Z,63.30
2018-12-06T19:07:10.625Z,63.30
2018-12-06T19:09:37.573Z,63.20
2018-12-06T19:12:04.519Z,63.10
2018-12-06T19:14:31.441Z,63.00
2018-12-06T19:16:58.374Z,62.90
2018-12-06T19:19:25.357Z,62.80
2018-12-06T19:21:52.302Z,62.80
2018-12-06T19:24:19.249Z,62.80
2018-12-06T19:26:46.170Z,62.70
2018-12-06T19:29:13.139Z,62.80
2018-12-06T19:31:40.091Z,62.90
2018-12-06T19:34:07.020Z,62.80
2018-12-06T19:36:33.937Z,62.70
2018-12-06T19:39:00.899Z,62.70
2018-12-06T19:41:28.212Z,62.60
2018-12-06T19:43:55.152Z,62.60
2018-12-06T19:46:22.069Z,62.50
2018-12-06T19:48:49.013Z,62.60
2018-12-06T19:51:15.933Z,62.50
2018-12-06T19:53:43.154Z,62.50
2018-12-06T19:56:15.866Z,62.50
2018-12-06T19:58:42.777Z,62.50
2018-12-06T20:01:09.803Z,62.50
2018-12-06T20:03:36.808Z,62.50
2018-12-06T20:06:03.729Z,62.50
2018-12-06T20:08:30.655Z,62.40
2018-12-06T20:10:57.661Z,62.50
2018-12-06T20:13:24.581Z,62.50
2018-12-06T20:15:51.560Z,62.50
2018-12-06T20:18:18.468Z,62.50
2018-12-06T20:20:45.453Z,62.50
2018-12-06T20:23:12.377Z,62.50
2018-12-06T20:25:39.308Z,62.50
2018-12-06T20:28:06.301Z,63.30
2018-12-06T20:30:33.246Z,62.50
2018-12-06T20:33:00.169Z,62.50
2018-12-06T20:35:27.091Z,62.50
2018-12-06T20:37:54.018Z,62.50
2018-12-06T20:40:20.938Z,62.50
2018-12-06T20:42:47.976Z,62.50
2018-12-06T20:45:14.888Z,61.80
2018-12-06T20:47:41.813Z,62.50
2018-12-06T20:50:08.734Z,62.50
2018-12-06T20:52:35.662Z,62.50
2018-12-06T20:55:02.597Z,62.60
2018-12-06T20:57:36.944Z,62.50
2018-12-06T20:59:59.452Z,62.50
2018-12-06T21:02:26.401Z,63.30
2018-12-06T21:04:53.343Z,62.40
2018-12-06T21:07:20.289Z,62.30
2018-12-06T21:09:47.335Z,62.20
2018-12-06T21:12:14.276Z,62.20
2018-12-06T21:14:41.194Z,62.20
2018-12-06T21:17:08.174Z,62.10
2018-12-06T21:19:35.120Z,62.10
2018-12-06T21:22:02.048Z,62.10
2018-12-06T21:24:29.023Z,62.10
2018-12-06T21:26:55.952Z,62.10
2018-12-06T21:29:22.869Z,62.00
2018-12-06T21:31:49.860Z,62.00
2018-12-06T21:34:16.776Z,62.00
2018-12-06T21:36:43.701Z,62.70
2018-12-06T21:39:10.620Z,61.90
2018-12-06T21:41:37.541Z,61.90
2018-12-06T21:44:04.460Z,62.00
2018-12-06T21:46:31.425Z,61.90
2018-12-06T21:48:58.374Z,61.80
2018-12-06T21:51:25.945Z,61.90
2018-12-06T21:53:52.875Z,61.90
2018-12-06T21:56:19.807Z,62.00
2018-12-06T21:58:46.864Z,61.90
2018-12-06T22:01:13.785Z,61.90
2018-12-06T22:03:40.756Z,61.80
2018-12-06T22:06:07.713Z,61.90
2018-12-06T22:08:34.634Z,61.90
2018-12-06T22:11:01.619Z,62.00
2018-12-06T22:13:28.652Z,62.00
2018-12-06T22:15:55.581Z,62.10
2018-12-06T22:18:22.506Z,62.10
2018-12-06T22:20:49.442Z,62.10
2018-12-06T22:23:16.389Z,62.10
2018-12-06T22:25:43.376Z,62.10
2018-12-06T22:28:10.312Z,62.10
2018-12-06T22:30:37.268Z,62.20
2018-12-06T22:33:04.221Z,62.30
2018-12-06T22:35:31.245Z,62.20
2018-12-06T22:37:58.208Z,62.20
2018-12-06T22:40:25.153Z,62.20
2018-12-06T22:42:52.101Z,62.20
2018-12-06T22:48:13.617Z,62.00
2018-12-06T22:50:40.592Z,62.00
2018-12-06T22:53:07.514Z,62.00
2018-12-06T22:55:34.485Z,62.10
2018-12-06T22:58:01.408Z,61.90
2018-12-06T23:00:30.254Z,61.90
2018-12-06T23:02:57.258Z,61.90
2018-12-06T23:05:24.201Z,61.90
2018-12-06T23:07:51.156Z,61.90
2018-12-06T23:10:18.093Z,61.80
2018-12-06T23:12:45.013Z,61.70
2018-12-06T23:15:11.983Z,61.80
2018-12-06T23:17:38.905Z,61.80
2018-12-06T23:20:05.868Z,61.70
2018-12-06T23:22:32.817Z,61.80
2018-12-06T23:24:59.759Z,61.90
2018-12-06T23:27:26.723Z,61.80
2018-12-06T23:29:53.666Z,61.90
2018-12-06T23:32:20.620Z,61.90
2018-12-06T23:34:47.594Z,61.80
2018-12-06T23:37:14.509Z,61.90
2018-12-06T23:39:41.444Z,62.00
2018-12-06T23:42:08.356Z,62.00
2018-12-06T23:44:35.329Z,61.90
2018-12-06T23:47:02.244Z,62.00
2018-12-06T23:49:29.182Z,62.00
2018-12-06T23:51:56.096Z,62.10
2018-12-06T23:54:23.027Z,62.10
2018-12-06T23:56:49.952Z,62.10
2018-12-06T23:59:16.874Z,62.00
